Sacramento, California
Traffic Map
Current Weather Conditions
Sacramento, California
Clear
Clear
20°
Feels Like: 20°
Wind Chill: 20° Ceiling: Unl
Heat Index: 20° Visibility: 10mi
Dew Point: 13° Wind: 3mph
Humidity: 65% Direction: 140° (SE)
Pressure: 29.83in Gusts: 0mph
Raw Report DataKSAC 281053Z AUTO 14003KT 10SM CLR 20/13 A2983 RMK AO2 SLP101 T02000133
Traffic Incident Summary
Active as of:
Severity:
Category:
InformationThere was an issue retrieving the traffic information for this location. Please try a different location or try again shortly.
Advertisements